Airfield :
LOGIN :

Register | Disclaimer

   EN    FR    IT 

 










Legend :    VFR   Marginal VFR   IFR   Intensive IFR   Very Intensive IFR
Visi :
Ceiling :
>= 8 km
>= 3000ft
5 to 8 km
1000 to 3000 ft
1500m to 5 km
500 to 1000 ft
800 to 1500m
200 to 500 ft
< 800m
< 200 ft
Symbols :   Thunderstorms  Fog  Heavy snow  Heavy precipitations  Wind > 20 kt
SIGMETs :     Misc.  Thunderstorms  Icing  Turbulence  Mountain Waves  Volcanic Ashes






- Airport Elevation : 137 ft
- IATA code : ARN


ESSA - Stockholm-Arlanda

CURRENT METAR :
  • 070250Z 20013KT CAVOK 09/06 Q1001 NOSIG

EXPIRED METARs :
  • 070220Z 21013KT CAVOK 09/06 Q1001 NOSIG
  • 070150Z 21014KT CAVOK 09/06 Q1001 NOSIG
  • 070120Z 20014KT CAVOK 09/06 Q1000 NOSIG
  • 070050Z 20012KT CAVOK 09/06 Q1000 NOSIG
  • 070020Z 21011KT 9999 NSC 10/06 Q0999 NOSIG
  • 062350Z 21013KT 9999 NSC 10/06 Q0999 NOSIG

TAF TAF ESSA
Valid from the 07 at 00:00 until the 08 at 00:00 UTC


062330Z 0700/0724 21014KT CAVOK
BECMG 0720/0722 18004KT



MET'MAP, your aeronautical weather chart ! - Copyright ORBIFLY December 2007 - Disclaimer

ORBIFLY MET'MAP TEAM :

Programming & Development : Alexandra Zaïnal
Concept & original design : Baudouin d'Aumeries
Assistance for programming : Marc-Olivier Méhu
Technical & hardware support : Manuel Goepfert

Contact : metmap@orbifly.com




SOURCES & CREDITS :

   NOAA